sensor_id;sensor_type;location;lat;lon;timestamp;pressure;altitude;pressure_sealevel;temperature;humidity
47897;BME280;39629;51.400;5.494;2022-12-20T00:02:34;101232.16;;;9.84;100.00
47897;BME280;39629;51.400;5.494;2022-12-20T00:07:36;101238.28;;;9.83;100.00
47897;BME280;39629;51.400;5.494;2022-12-20T00:12:39;101234.88;;;10.01;100.00
47897;BME280;39629;51.400;5.494;2022-12-20T00:17:40;101232.16;;;9.84;100.00
47897;BME280;39629;51.400;5.494;2022-12-20T00:22:42;101220.81;;;9.95;100.00
47897;BME280;39629;51.400;5.494;2022-12-20T00:27:45;101214.91;;;10.36;100.00
47897;BME280;39629;51.400;5.494;2022-12-20T00:32:47;101213.13;;;10.38;100.00
47897;BME280;39629;51.400;5.494;2022-12-20T00:37:48;101213.19;;;10.44;100.00
47897;BME280;39629;51.400;5.494;2022-12-20T00:42:51;101210.59;;;10.56;100.00
47897;BME280;39629;51.400;5.494;2022-12-20T00:47:53;101200.09;;;10.75;100.00
47897;BME280;39629;51.400;5.494;2022-12-20T00:52:54;101197.44;;;10.64;100.00
47897;BME280;39629;51.400;5.494;2022-12-20T00:57:58;101206.28;;;10.89;100.00
47897;BME280;39629;51.400;5.494;2022-12-20T01:02:59;101202.72;;;10.72;100.00
47897;BME280;39629;51.400;5.494;2022-12-20T01:08:02;101213.31;;;10.94;100.00
47897;BME280;39629;51.400;5.494;2022-12-20T01:13:05;101210.59;;;10.66;100.00
47897;BME280;39629;51.400;5.494;2022-12-20T01:18:07;101225.44;;;10.42;100.00
47897;BME280;39629;51.400;5.494;2022-12-20T01:23:08;101212.28;;;10.37;100.00
47897;BME280;39629;51.400;5.494;2022-12-20T01:28:11;101214.78;;;10.11;100.00
47897;BME280;39629;51.400;5.494;2022-12-20T01:33:13;101221.66;;;9.91;100.00
47897;BME280;39629;51.400;5.494;2022-12-20T01:38:15;101210.22;;;9.76;100.00
47897;BME280;39629;51.400;5.494;2022-12-20T01:43:19;101208.34;;;9.60;100.00
47897;BME280;39629;51.400;5.494;2022-12-20T01:48:24;101183.78;;;9.58;100.00
47897;BME280;39629;51.400;5.494;2022-12-20T01:53:26;101175.81;;;9.45;100.00
47897;BME280;39629;51.400;5.494;2022-12-20T01:58:30;101167.00;;;9.35;100.00
47897;BME280;39629;51.400;5.494;2022-12-20T02:03:32;101154.69;;;9.30;100.00
47897;BME280;39629;51.400;5.494;2022-12-20T02:08:34;101173.97;;;9.32;100.00
47897;BME280;39629;51.400;5.494;2022-12-20T02:13:44;101163.53;;;9.41;100.00
47897;BME280;39629;51.400;5.494;2022-12-20T02:18:56;101160.88;;;9.35;100.00
47897;BME280;39629;51.400;5.494;2022-12-20T02:24:30;101159.16;;;9.40;100.00
47897;BME280;39629;51.400;5.494;2022-12-20T02:29:58;101138.25;;;9.62;100.00
47897;BME280;39629;51.400;5.494;2022-12-20T02:35:00;101132.13;;;9.57;100.00
47897;BME280;39629;51.400;5.494;2022-12-20T02:40:04;101135.63;;;9.62;100.00
47897;BME280;39629;51.400;5.494;2022-12-20T02:45:08;101118.22;;;9.82;100.00
47897;BME280;39629;51.400;5.494;2022-12-20T02:50:20;101120.00;;;9.89;100.00
47897;BME280;39629;51.400;5.494;2022-12-20T02:55:30;101104.31;;;10.11;100.00
47897;BME280;39629;51.400;5.494;2022-12-20T03:00:37;101106.91;;;9.94;100.00
47897;BME280;39629;51.400;5.494;2022-12-20T03:05:43;101113.94;;;10.06;100.00
47897;BME280;39629;51.400;5.494;2022-12-20T03:10:47;101126.28;;;10.15;100.00
47897;BME280;39629;51.400;5.494;2022-12-20T03:15:51;101122.78;;;10.30;100.00
47897;BME280;39629;51.400;5.494;2022-12-20T03:20:53;101122.81;;;10.45;100.00
47897;BME280;39629;51.400;5.494;2022-12-20T03:25:54;101111.44;;;10.37;100.00
47897;BME280;39629;51.400;5.494;2022-12-20T03:31:05;101103.53;;;10.49;100.00
47897;BME280;39629;51.400;5.494;2022-12-20T03:36:15;101114.94;;;10.57;100.00
47897;BME280;39629;51.400;5.494;2022-12-20T03:41:22;101114.97;;;10.68;100.00
47897;BME280;39629;51.400;5.494;2022-12-20T03:46:26;101109.72;;;10.62;100.00
47897;BME280;39629;51.400;5.494;2022-12-20T03:51:28;101115.84;;;10.60;100.00
47897;BME280;39629;51.400;5.494;2022-12-20T03:56:31;101113.22;;;10.66;100.00
47897;BME280;39629;51.400;5.494;2022-12-20T04:01:34;101104.44;;;10.70;100.00
47897;BME280;39629;51.400;5.494;2022-12-20T04:06:38;101104.44;;;10.51;100.00
47897;BME280;39629;51.400;5.494;2022-12-20T04:11:40;101092.16;;;10.66;100.00
47897;BME280;39629;51.400;5.494;2022-12-20T04:16:48;101107.06;;;10.67;100.00
47897;BME280;39629;51.400;5.494;2022-12-20T04:21:53;101088.66;;;10.70;100.00
47897;BME280;39629;51.400;5.494;2022-12-20T04:26:58;101089.50;;;10.53;100.00
47897;BME280;39629;51.400;5.494;2022-12-20T04:32:02;101085.16;;;10.71;100.00
47897;BME280;39629;51.400;5.494;2022-12-20T04:37:04;101087.75;;;10.63;100.00
47897;BME280;39629;51.400;5.494;2022-12-20T04:42:17;101072.00;;;10.65;100.00
47897;BME280;39629;51.400;5.494;2022-12-20T04:47:21;101085.16;;;10.66;100.00
47897;BME280;39629;51.400;5.494;2022-12-20T04:52:25;101083.41;;;10.76;100.00
47897;BME280;39629;51.400;5.494;2022-12-20T04:57:44;101059.69;;;10.79;100.00
47897;BME280;39629;51.400;5.494;2022-12-20T05:02:47;101072.00;;;10.68;100.00
47897;BME280;39629;51.400;5.494;2022-12-20T05:07:53;101065.84;;;10.66;100.00
47897;BME280;39629;51.400;5.494;2022-12-20T05:12:56;101064.09;;;10.57;100.00
47897;BME280;39629;51.400;5.494;2022-12-20T05:18:08;101054.44;;;10.51;100.00
47897;BME280;39629;51.400;5.494;2022-12-20T05:23:31;101051.81;;;10.48;100.00
47897;BME280;39629;51.400;5.494;2022-12-20T05:28:55;101050.03;;;10.38;100.00
47897;BME280;39629;51.400;5.494;2022-12-20T05:34:00;101041.25;;;10.27;100.00
47897;BME280;39629;51.400;5.494;2022-12-20T05:39:04;101037.75;;;10.32;100.00
47897;BME280;39629;51.400;5.494;2022-12-20T05:44:10;101023.72;;;10.29;100.00
47897;BME280;39629;51.400;5.494;2022-12-20T05:49:17;101034.22;;;10.26;100.00
47897;BME280;39629;51.400;5.494;2022-12-20T05:54:19;101036.00;;;10.20;100.00
47897;BME280;39629;51.400;5.494;2022-12-20T05:59:33;101014.94;;;10.20;100.00
47897;BME280;39629;51.400;5.494;2022-12-20T06:04:38;101012.31;;;10.27;100.00
47897;BME280;39629;51.400;5.494;2022-12-20T06:09:49;100993.03;;;10.28;100.00
47897;BME280;39629;51.400;5.494;2022-12-20T06:14:55;100979.00;;;10.29;100.00
47897;BME280;39629;51.400;5.494;2022-12-20T06:19:58;100978.97;;;10.04;100.00
47897;BME280;39629;51.400;5.494;2022-12-20T06:25:00;100987.75;;;10.11;100.00
47897;BME280;39629;51.400;5.494;2022-12-20T06:30:06;100987.75;;;10.11;100.00
47897;BME280;39629;51.400;5.494;2022-12-20T06:35:21;100989.50;;;10.04;100.00
47897;BME280;39629;51.400;5.494;2022-12-20T06:40:24;100979.88;;;10.12;100.00
47897;BME280;39629;51.400;5.494;2022-12-20T06:45:26;100979.84;;;10.03;100.00
47897;BME280;39629;51.400;5.494;2022-12-20T06:50:30;100970.22;;;10.14;100.00
47897;BME280;39629;51.400;5.494;2022-12-20T06:55:32;100968.47;;;10.18;100.00
47897;BME280;39629;51.400;5.494;2022-12-20T07:00:34;100986.00;;;10.10;100.00
47897;BME280;39629;51.400;5.494;2022-12-20T07:05:37;100988.63;;;10.14;100.00
47897;BME280;39629;51.400;5.494;2022-12-20T07:10:39;100986.88;;;10.19;100.00
47897;BME280;39629;51.400;5.494;2022-12-20T07:15:40;100985.13;;;10.11;100.00
47897;BME280;39629;51.400;5.494;2022-12-20T07:20:43;100985.09;;;10.06;100.00
47897;BME280;39629;51.400;5.494;2022-12-20T07:25:52;100991.22;;;10.02;100.00
47897;BME280;39629;51.400;5.494;2022-12-20T07:30:53;100990.34;;;10.09;100.00
47897;BME280;39629;51.400;5.494;2022-12-20T07:36:00;100992.13;;;10.19;100.00
47897;BME280;39629;51.400;5.494;2022-12-20T07:41:06;100990.38;;;10.15;100.00
47897;BME280;39629;51.400;5.494;2022-12-20T07:46:09;100995.66;;;10.12;100.00
47897;BME280;39629;51.400;5.494;2022-12-20T07:51:16;100993.91;;;10.37;100.00
47897;BME280;39629;51.400;5.494;2022-12-20T07:56:19;101000.94;;;10.37;100.00
47897;BME280;39629;51.400;5.494;2022-12-20T08:01:23;101006.19;;;10.43;100.00
47897;BME280;39629;51.400;5.494;2022-12-20T08:06:28;101010.56;;;10.61;100.00
47897;BME280;39629;51.400;5.494;2022-12-20T08:11:32;101014.97;;;10.53;100.00
47897;BME280;39629;51.400;5.494;2022-12-20T08:16:35;101001.81;;;10.37;100.00
47897;BME280;39629;51.400;5.494;2022-12-20T08:21:38;101005.31;;;10.64;100.00
47897;BME280;39629;51.400;5.494;2022-12-20T08:26:40;101007.06;;;10.48;100.00
47897;BME280;39629;51.400;5.494;2022-12-20T08:31:42;101006.19;;;10.59;100.00
47897;BME280;39629;51.400;5.494;2022-12-20T08:36:45;101002.69;;;10.49;100.00
47897;BME280;39629;51.400;5.494;2022-12-20T08:41:47;101009.69;;;10.27;100.00
47897;BME280;39629;51.400;5.494;2022-12-20T08:46:48;101000.03;;;10.16;100.00
47897;BME280;39629;51.400;5.494;2022-12-20T08:51:52;100987.72;;;10.01;100.00
47897;BME280;39629;51.400;5.494;2022-12-20T08:56:53;100986.88;;;10.16;100.00
47897;BME280;39629;51.400;5.494;2022-12-20T09:01:55;100985.13;;;10.14;100.00
47897;BME280;39629;51.400;5.494;2022-12-20T09:06:58;100987.75;;;10.12;100.00
47897;BME280;39629;51.400;5.494;2022-12-20T09:12:00;100969.38;;;10.25;100.00
47897;BME280;39629;51.400;5.494;2022-12-20T09:17:01;100971.13;;;10.29;100.00
47897;BME280;39629;51.400;5.494;2022-12-20T09:22:04;100989.53;;;10.46;100.00
47897;BME280;39629;51.400;5.494;2022-12-20T09:27:06;100965.84;;;10.50;100.00
47897;BME280;39629;51.400;5.494;2022-12-20T09:32:08;100974.59;;;10.62;100.00
47897;BME280;39629;51.400;5.494;2022-12-20T09:37:11;100967.56;;;10.57;100.00
47897;BME280;39629;51.400;5.494;2022-12-20T09:42:13;100958.81;;;10.59;100.00
47897;BME280;39629;51.400;5.494;2022-12-20T09:47:17;100975.47;;;10.67;100.00
47897;BME280;39629;51.400;5.494;2022-12-20T09:52:30;100982.50;;;10.66;100.00
47897;BME280;39629;51.400;5.494;2022-12-20T09:57:46;100964.94;;;10.70;100.00
47897;BME280;39629;51.400;5.494;2022-12-20T10:02:53;100971.97;;;10.62;100.00
47897;BME280;39629;51.400;5.494;2022-12-20T10:08:02;100968.44;;;10.75;100.00
47897;BME280;39629;51.400;5.494;2022-12-20T10:13:19;100954.38;;;10.82;100.00
47897;BME280;39629;51.400;5.494;2022-12-20T10:18:38;100953.50;;;11.03;100.00
47897;BME280;39629;51.400;5.494;2022-12-20T10:23:56;100965.75;;;11.15;100.00
47897;BME280;39629;51.400;5.494;2022-12-20T10:29:02;100964.91;;;10.96;100.00
47897;BME280;39629;51.400;5.494;2022-12-20T10:34:05;100970.22;;;10.74;100.00
47897;BME280;39629;51.400;5.494;2022-12-20T10:39:10;100955.31;;;10.69;100.00
47897;BME280;39629;51.400;5.494;2022-12-20T10:44:18;100953.53;;;10.63;100.00
47897;BME280;39629;51.400;5.494;2022-12-20T10:49:26;100943.03;;;10.52;100.00
47897;BME280;39629;51.400;5.494;2022-12-20T10:54:32;100944.78;;;10.41;100.00
47897;BME280;39629;51.400;5.494;2022-12-20T10:59:36;100944.78;;;10.26;100.00
47897;BME280;39629;51.400;5.494;2022-12-20T11:04:39;100950.06;;;10.16;100.00
47897;BME280;39629;51.400;5.494;2022-12-20T11:09:51;100943.03;;;10.18;100.00
47897;BME280;39629;51.400;5.494;2022-12-20T11:15:08;100933.41;;;10.27;100.00
47897;BME280;39629;51.400;5.494;2022-12-20T11:20:24;100933.41;;;10.28;100.00
47897;BME280;39629;51.400;5.494;2022-12-20T11:25:38;100931.66;;;10.24;100.00
47897;BME280;39629;51.400;5.494;2022-12-20T11:30:50;100923.75;;;10.22;100.00
47897;BME280;39629;51.400;5.494;2022-12-20T11:36:02;100918.50;;;10.16;100.00
47897;BME280;39629;51.400;5.494;2022-12-20T11:41:17;100919.38;;;10.15;100.00
47897;BME280;39629;51.400;5.494;2022-12-20T11:46:31;100914.09;;;10.20;100.00
47897;BME280;39629;51.400;5.494;2022-12-20T11:51:41;100910.63;;;10.18;100.00
47897;BME280;39629;51.400;5.494;2022-12-20T11:56:49;100900.09;;;10.24;100.00
47897;BME280;39629;51.400;5.494;2022-12-20T12:01:56;100898.34;;;10.26;100.00
47897;BME280;39629;51.400;5.494;2022-12-20T12:07:03;100900.09;;;10.24;100.00
47897;BME280;39629;51.400;5.494;2022-12-20T12:12:13;100903.59;;;10.26;100.00
47897;BME280;39629;51.400;5.494;2022-12-20T12:17:23;100903.59;;;10.29;100.00
47897;BME280;39629;51.400;5.494;2022-12-20T12:22:30;100893.06;;;10.23;100.00
47897;BME280;39629;51.400;5.494;2022-12-20T12:27:35;100898.34;;;10.15;100.00
47897;BME280;39629;51.400;5.494;2022-12-20T12:32:39;100893.09;;;10.15;100.00
47897;BME280;39629;51.400;5.494;2022-12-20T12:37:51;100897.44;;;10.13;100.00
47897;BME280;39629;51.400;5.494;2022-12-20T12:43:39;100901.84;;;10.10;100.00
47897;BME280;39629;51.400;5.494;2022-12-20T12:48:49;100889.59;;;10.02;100.00
47897;BME280;39629;51.400;5.494;2022-12-20T12:53:53;100893.97;;;10.05;100.00
47897;BME280;39629;51.400;5.494;2022-12-20T13:04:54;100885.19;;;9.97;100.00
47897;BME280;39629;51.400;5.494;2022-12-20T13:09:57;100878.16;;;9.89;100.00
47897;BME280;39629;51.400;5.494;2022-12-20T13:14:59;100872.91;;;9.88;100.00
47897;BME280;39629;51.400;5.494;2022-12-20T13:20:16;100869.41;;;9.87;100.00
47897;BME280;39629;51.400;5.494;2022-12-20T13:25:27;100864.16;;;9.78;100.00
47897;BME280;39629;51.400;5.494;2022-12-20T13:30:31;100878.16;;;9.73;100.00
47897;BME280;39629;51.400;5.494;2022-12-20T13:35:46;100873.78;;;9.70;100.00
47897;BME280;39629;51.400;5.494;2022-12-20T13:40:56;100875.53;;;9.68;100.00
47897;BME280;39629;51.400;5.494;2022-12-20T13:46:11;100873.78;;;9.65;100.00
47897;BME280;39629;51.400;5.494;2022-12-20T13:51:17;100878.13;;;9.62;100.00
47897;BME280;39629;51.400;5.494;2022-12-20T13:56:31;100875.50;;;9.59;100.00
47897;BME280;39629;51.400;5.494;2022-12-20T14:01:33;100879.00;;;9.53;100.00
47897;BME280;39629;51.400;5.494;2022-12-20T14:06:37;100876.38;;;9.54;100.00
47897;BME280;39629;51.400;5.494;2022-12-20T14:11:45;100874.63;;;9.50;100.00
47897;BME280;39629;51.400;5.494;2022-12-20T14:16:47;100873.75;;;9.48;100.00
47897;BME280;39629;51.400;5.494;2022-12-20T14:21:50;100882.50;;;9.46;100.00
47897;BME280;39629;51.400;5.494;2022-12-20T14:26:52;100878.97;;;9.41;100.00
47897;BME280;39629;51.400;5.494;2022-12-20T14:31:55;100874.59;;;9.41;100.00
47897;BME280;39629;51.400;5.494;2022-12-20T14:37:30;100877.25;;;9.43;100.00
47897;BME280;39629;51.400;5.494;2022-12-20T14:42:34;100871.97;;;9.38;100.00
47897;BME280;39629;51.400;5.494;2022-12-20T14:47:36;100866.69;;;9.36;100.00
47897;BME280;39629;51.400;5.494;2022-12-20T14:52:40;100872.81;;;9.35;100.00
47897;BME280;39629;51.400;5.494;2022-12-20T14:57:44;100860.59;;;9.33;100.00
47897;BME280;39629;51.400;5.494;2022-12-20T15:02:50;100857.06;;;9.31;100.00
47897;BME280;39629;51.400;5.494;2022-12-20T15:07:53;100842.16;;;9.27;100.00
47897;BME280;39629;51.400;5.494;2022-12-20T15:12:55;100840.41;;;9.27;100.00
47897;BME280;39629;51.400;5.494;2022-12-20T15:17:57;100850.94;;;9.32;100.00
47897;BME280;39629;51.400;5.494;2022-12-20T15:23:00;100836.91;;;9.27;100.00
47897;BME280;39629;51.400;5.494;2022-12-20T15:28:11;100835.16;;;9.23;100.00
47897;BME280;39629;51.400;5.494;2022-12-20T15:33:16;100833.44;;;9.25;100.00
47897;BME280;39629;51.400;5.494;2022-12-20T15:38:21;100842.16;;;9.24;100.00
47897;BME280;39629;51.400;5.494;2022-12-20T15:43:23;100853.53;;;9.21;100.00
47897;BME280;39629;51.400;5.494;2022-12-20T15:48:26;100850.91;;;9.21;100.00
47897;BME280;39629;51.400;5.494;2022-12-20T15:53:32;100850.03;;;9.19;100.00
47897;BME280;39629;51.400;5.494;2022-12-20T15:58:34;100840.41;;;9.19;100.00
47897;BME280;39629;51.400;5.494;2022-12-20T16:03:36;100849.16;;;9.17;100.00
47897;BME280;39629;51.400;5.494;2022-12-20T16:08:40;100844.78;;;9.20;100.00
47897;BME280;39629;51.400;5.494;2022-12-20T16:13:42;100847.41;;;9.20;100.00
47897;BME280;39629;51.400;5.494;2022-12-20T16:18:44;100842.13;;;9.13;100.00
47897;BME280;39629;51.400;5.494;2022-12-20T16:23:48;100846.53;;;9.11;100.00
47897;BME280;39629;51.400;5.494;2022-12-20T16:28:51;100846.53;;;9.15;100.00
47897;BME280;39629;51.400;5.494;2022-12-20T16:33:54;100836.88;;;9.16;100.00
47897;BME280;39629;51.400;5.494;2022-12-20T16:38:57;100844.75;;;9.08;100.00
47897;BME280;39629;51.400;5.494;2022-12-20T16:44:01;100846.47;;;9.09;100.00
47897;BME280;39629;51.400;5.494;2022-12-20T16:49:03;100836.88;;;9.11;100.00
47897;BME280;39629;51.400;5.494;2022-12-20T16:54:12;100843.00;;;9.12;100.00
47897;BME280;39629;51.400;5.494;2022-12-20T16:59:14;100843.00;;;9.12;100.00
47897;BME280;39629;51.400;5.494;2022-12-20T17:04:17;100836.88;;;9.08;100.00
47897;BME280;39629;51.400;5.494;2022-12-20T17:09:20;100829.00;;;9.08;100.00
47897;BME280;39629;51.400;5.494;2022-12-20T17:14:22;100833.34;;;9.09;100.00
47897;BME280;39629;51.400;5.494;2022-12-20T17:19:23;100829.88;;;9.06;100.00
47897;BME280;39629;51.400;5.494;2022-12-20T17:24:27;100834.25;;;9.05;100.00
47897;BME280;39629;51.400;5.494;2022-12-20T17:29:28;100829.88;;;9.06;100.00
47897;BME280;39629;51.400;5.494;2022-12-20T17:34:30;100827.25;;;9.07;100.00
47897;BME280;39629;51.400;5.494;2022-12-20T17:39:33;100835.97;;;9.09;100.00
47897;BME280;39629;51.400;5.494;2022-12-20T17:44:35;100840.38;;;9.06;100.00
47897;BME280;39629;51.400;5.494;2022-12-20T17:49:36;100844.72;;;9.02;100.00
47897;BME280;39629;51.400;5.494;2022-12-20T17:54:40;100834.25;;;9.08;100.00
47897;BME280;39629;51.400;5.494;2022-12-20T17:59:41;100835.97;;;9.06;100.00
47897;BME280;39629;51.400;5.494;2022-12-20T18:04:43;100844.75;;;9.05;100.00
47897;BME280;39629;51.400;5.494;2022-12-20T18:09:48;100835.97;;;9.03;100.00
47897;BME280;39629;51.400;5.494;2022-12-20T18:14:50;100836.88;;;9.07;100.00
47897;BME280;39629;51.400;5.494;2022-12-20T18:19:52;100835.13;;;9.07;100.00
47897;BME280;39629;51.400;5.494;2022-12-20T18:24:56;100832.50;;;9.10;100.00
47897;BME280;39629;51.400;5.494;2022-12-20T18:29:58;100837.75;;;9.07;100.00
47897;BME280;39629;51.400;5.494;2022-12-20T18:34:59;100835.97;;;9.06;100.00
47897;BME280;39629;51.400;5.494;2022-12-20T18:40:03;100835.97;;;9.06;100.00
47897;BME280;39629;51.400;5.494;2022-12-20T18:45:05;100835.13;;;9.04;100.00
47897;BME280;39629;51.400;5.494;2022-12-20T18:50:08;100840.38;;;9.04;100.00
47897;BME280;39629;51.400;5.494;2022-12-20T18:55:13;100851.72;;;9.01;100.00
47897;BME280;39629;51.400;5.494;2022-12-20T19:00:16;100847.34;;;9.03;100.00
47897;BME280;39629;51.400;5.494;2022-12-20T19:05:18;100844.75;;;9.05;100.00
47897;BME280;39629;51.400;5.494;2022-12-20T19:10:21;100843.00;;;9.04;100.00
47897;BME280;39629;51.400;5.494;2022-12-20T19:15:23;100834.22;;;9.03;100.00
47897;BME280;39629;51.400;5.494;2022-12-20T19:20:25;100836.88;;;9.07;100.00
47897;BME280;39629;51.400;5.494;2022-12-20T19:25:28;100834.22;;;9.02;100.00
47897;BME280;39629;51.400;5.494;2022-12-20T19:30:29;100848.22;;;9.01;100.00
47897;BME280;39629;51.400;5.494;2022-12-20T19:35:31;100839.47;;;8.99;100.00
47897;BME280;39629;51.400;5.494;2022-12-20T19:40:34;100853.50;;;9.02;100.00
47897;BME280;39629;51.400;5.494;2022-12-20T19:45:36;100849.09;;;9.00;100.00
47897;BME280;39629;51.400;5.494;2022-12-20T19:50:38;100853.50;;;9.07;100.00
47897;BME280;39629;51.400;5.494;2022-12-20T19:55:40;100849.09;;;9.00;100.00
47897;BME280;39629;51.400;5.494;2022-12-20T20:00:45;100858.75;;;9.04;100.00
47897;BME280;39629;51.400;5.494;2022-12-20T20:05:47;100843.00;;;9.01;100.00
47897;BME280;39629;51.400;5.494;2022-12-20T20:10:52;100856.13;;;9.02;100.00
47897;BME280;39629;51.400;5.494;2022-12-20T20:15:56;100852.59;;;8.99;100.00
47897;BME280;39629;51.400;5.494;2022-12-20T20:20:57;100849.97;;;9.02;100.00
47897;BME280;39629;51.400;5.494;2022-12-20T20:26:03;100849.97;;;8.97;100.00
47897;BME280;39629;51.400;5.494;2022-12-20T20:31:08;100856.97;;;9.00;100.00
47897;BME280;39629;51.400;5.494;2022-12-20T20:36:12;100863.94;;;8.98;100.00
47897;BME280;39629;51.400;5.494;2022-12-20T20:41:15;100849.97;;;9.02;100.00
47897;BME280;39629;51.400;5.494;2022-12-20T20:46:17;100849.97;;;8.99;100.00
47897;BME280;39629;51.400;5.494;2022-12-20T20:51:19;100849.97;;;8.99;100.00
47897;BME280;39629;51.400;5.494;2022-12-20T20:56:22;100849.97;;;8.97;100.00
47897;BME280;39629;51.400;5.494;2022-12-20T21:01:24;100844.72;;;9.02;100.00
47897;BME280;39629;51.400;5.494;2022-12-20T21:06:26;100849.09;;;8.98;100.00
47897;BME280;39629;51.400;5.494;2022-12-20T21:11:30;100857.84;;;8.97;100.00
47897;BME280;39629;51.400;5.494;2022-12-20T21:16:32;100862.16;;;8.94;100.00
47897;BME280;39629;51.400;5.494;2022-12-20T21:21:34;100868.28;;;8.93;100.00
47897;BME280;39629;51.400;5.494;2022-12-20T21:26:37;100861.28;;;8.90;100.00
47897;BME280;39629;51.400;5.494;2022-12-20T21:31:39;100872.63;;;8.91;100.00
47897;BME280;39629;51.400;5.494;2022-12-20T21:36:41;100868.25;;;8.91;100.00
47897;BME280;39629;51.400;5.494;2022-12-20T21:41:44;100859.50;;;8.91;100.00
47897;BME280;39629;51.400;5.494;2022-12-20T21:46:45;100850.78;;;8.87;100.00
47897;BME280;39629;51.400;5.494;2022-12-20T21:51:47;100853.41;;;8.89;100.00
47897;BME280;39629;51.400;5.494;2022-12-20T21:56:50;100861.28;;;8.87;100.00
47897;BME280;39629;51.400;5.494;2022-12-20T22:01:51;100863.84;;;8.85;100.00
47897;BME280;39629;51.400;5.494;2022-12-20T22:06:53;100872.63;;;8.83;100.00
47897;BME280;39629;51.400;5.494;2022-12-20T22:11:56;100873.50;;;8.83;100.00
47897;BME280;39629;51.400;5.494;2022-12-20T22:16:58;100869.09;;;8.82;100.00
47897;BME280;39629;51.400;5.494;2022-12-20T22:21:59;100878.72;;;8.83;100.00
47897;BME280;39629;51.400;5.494;2022-12-20T22:27:02;100890.09;;;8.82;100.00
47897;BME280;39629;51.400;5.494;2022-12-20T22:32:04;100888.38;;;8.83;100.00
47897;BME280;39629;51.400;5.494;2022-12-20T22:37:06;100892.72;;;8.81;100.00
47897;BME280;39629;51.400;5.494;2022-12-20T22:42:09;100890.09;;;8.79;100.00
47897;BME280;39629;51.400;5.494;2022-12-20T22:47:10;100877.84;;;8.80;100.00
47897;BME280;39629;51.400;5.494;2022-12-20T22:52:12;100891.84;;;8.80;100.00
47897;BME280;39629;51.400;5.494;2022-12-20T22:57:15;100897.94;;;8.78;100.00
47897;BME280;39629;51.400;5.494;2022-12-20T23:02:17;100896.19;;;8.72;100.00
47897;BME280;39629;51.400;5.494;2022-12-20T23:07:18;100886.53;;;8.65;100.00
47897;BME280;39629;51.400;5.494;2022-12-20T23:12:21;100882.13;;;8.61;100.00
47897;BME280;39629;51.400;5.494;2022-12-20T23:17:41;100882.97;;;8.57;100.00
47897;BME280;39629;51.400;5.494;2022-12-20T23:22:42;100902.19;;;8.52;100.00
47897;BME280;39629;51.400;5.494;2022-12-20T23:27:47;100893.41;;;8.50;100.00
47897;BME280;39629;51.400;5.494;2022-12-20T23:32:50;100900.41;;;8.47;100.00
47897;BME280;39629;51.400;5.494;2022-12-20T23:37:53;100902.09;;;8.43;100.00
47897;BME280;39629;51.400;5.494;2022-12-20T23:42:57;100900.34;;;8.42;100.00
47897;BME280;39629;51.400;5.494;2022-12-20T23:47:59;100893.31;;;8.35;100.00
47897;BME280;39629;51.400;5.494;2022-12-20T23:53:00;100884.50;;;8.25;100.00
47897;BME280;39629;51.400;5.494;2022-12-20T23:58:03;100895.81;;;8.20;100.00
